Time;durP1;ratioP1;P1;durP2;ratioP2;P2;SDS_P1;SDS_P2;PMS_P1;PMS_P2;Temp;Humidity;BMP_temperature;BMP_pressure;BME280_temperature;BME280_humidity;BME280_pressure;Samples;Min_cycle;Max_cycle;Signal;HPM_P1;HPM_P2
2022/04/02 00:02:02;;;;;;;7.50;1.75;;;;;;;;;;5043494;28;20029;-73
2022/04/02 00:04:29;;;;;;;4.18;1.15;;;;;;;;;;5045060;28;20074;-72
2022/04/02 00:06:55;;;;;;;7.40;1.48;;;;;;;;;;5044688;28;20044;-72
2022/04/02 00:09:22;;;;;;;8.20;1.67;;;;;;;;;;5044822;28;20108;-72
2022/04/02 00:11:48;;;;;;;5.68;2.38;;;;;;;;;;5042911;28;20048;-73
2022/04/02 00:14:14;;;;;;;7.68;2.45;;;;;;;;;;5044909;28;20025;-72
2022/04/02 00:16:40;;;;;;;11.52;1.88;;;;;;;;;;5043398;28;20083;-72
2022/04/02 00:19:07;;;;;;;11.45;2.15;;;;;;;;;;5044712;28;20108;-72
2022/04/02 00:21:34;;;;;;;21.80;2.38;;;;;;;;;;5044559;28;20029;-72
2022/04/02 00:24:00;;;;;;;10.40;1.85;;;;;;;;;;5044756;28;20025;-72
2022/04/02 00:26:26;;;;;;;7.10;1.48;;;;;;;;;;5044266;28;20151;-74
2022/04/02 00:28:52;;;;;;;7.82;1.65;;;;;;;;;;5043194;28;20028;-71
2022/04/02 00:31:19;;;;;;;10.35;1.70;;;;;;;;;;5044316;28;20478;-71
2022/04/02 00:33:46;;;;;;;5.38;1.30;;;;;;;;;;5043765;28;20386;-73
2022/04/02 00:36:13;;;;;;;10.73;2.38;;;;;;;;;;5044198;28;20028;-71
2022/04/02 00:38:39;;;;;;;11.30;2.42;;;;;;;;;;5042937;28;20136;-74
2022/04/02 00:41:06;;;;;;;5.63;1.55;;;;;;;;;;5024542;28;20485;-71
2022/04/02 00:43:41;;;;;;;12.98;2.65;;;;;;;;;;5043766;28;20045;-71
2022/04/02 00:46:08;;;;;;;11.50;2.03;;;;;;;;;;5044035;28;20769;-71
2022/04/02 00:48:35;;;;;;;9.50;2.08;;;;;;;;;;5043216;28;20025;-70
2022/04/02 00:51:02;;;;;;;9.00;1.52;;;;;;;;;;5042821;28;20103;-71
2022/04/02 00:53:33;;;;;;;8.98;2.25;;;;;;;;;;5042269;28;20128;-71
2022/04/02 00:56:00;;;;;;;11.90;1.83;;;;;;;;;;5043873;28;20037;-71
2022/04/02 00:58:26;;;;;;;11.35;2.17;;;;;;;;;;5043697;28;20029;-71
2022/04/02 01:00:52;;;;;;;7.13;1.23;;;;;;;;;;5042614;28;20115;-71
2022/04/02 01:03:20;;;;;;;10.57;2.40;;;;;;;;;;5043296;28;20167;-71
2022/04/02 01:05:46;;;;;;;9.55;1.85;;;;;;;;;;5041685;28;20459;-71
2022/04/02 01:08:12;;;;;;;5.90;1.42;;;;;;;;;;5043338;28;20032;-71
2022/04/02 01:10:39;;;;;;;18.00;3.28;;;;;;;;;;5043297;28;20784;-70
2022/04/02 01:13:06;;;;;;;6.68;1.67;;;;;;;;;;5041078;28;20036;-71
2022/04/02 01:15:32;;;;;;;8.45;2.45;;;;;;;;;;5042866;28;20025;-71
2022/04/02 01:17:59;;;;;;;14.45;2.00;;;;;;;;;;5043060;28;20390;-71
2022/04/02 01:20:28;;;;;;;7.05;1.77;;;;;;;;;;5041666;28;20111;-71
2022/04/02 01:22:54;;;;;;;7.13;1.80;;;;;;;;;;5043191;28;20635;-71
2022/04/02 01:25:21;;;;;;;8.13;1.50;;;;;;;;;;5042347;28;20029;-71
2022/04/02 01:27:48;;;;;;;3.53;1.17;;;;;;;;;;5042414;28;20478;-70
2022/04/02 01:30:15;;;;;;;3.58;1.20;;;;;;;;;;5041436;28;20036;-71
2022/04/02 01:32:41;;;;;;;7.28;1.98;;;;;;;;;;5042435;28;20114;-71
2022/04/02 01:35:08;;;;;;;4.82;1.30;;;;;;;;;;5042915;28;20021;-71
2022/04/02 01:37:35;;;;;;;5.00;1.20;;;;;;;;;;5043090;28;20029;-70
2022/04/02 01:40:03;;;;;;;6.35;1.58;;;;;;;;;;5043293;28;20029;-71
2022/04/02 01:42:29;;;;;;;6.00;1.90;;;;;;;;;;5044767;28;20447;-72
2022/04/02 01:44:55;;;;;;;3.83;1.50;;;;;;;;;;5044871;28;20500;-71
2022/04/02 01:47:22;;;;;;;4.03;1.38;;;;;;;;;;5045238;28;20103;-71
2022/04/02 01:49:49;;;;;;;7.10;1.55;;;;;;;;;;5043134;28;20099;-71
2022/04/02 01:52:19;;;;;;;8.60;1.90;;;;;;;;;;5044791;28;20060;-74
2022/04/02 01:54:46;;;;;;;4.32;1.05;;;;;;;;;;5044710;28;20032;-71
2022/04/02 01:57:12;;;;;;;9.23;1.45;;;;;;;;;;5044802;28;20063;-71
2022/04/02 01:59:40;;;;;;;6.53;1.70;;;;;;;;;;5043084;28;20021;-70
2022/04/02 02:02:07;;;;;;;7.72;1.40;;;;;;;;;;5044348;28;20063;-71
2022/04/02 02:04:36;;;;;;;3.65;1.48;;;;;;;;;;5044563;28;20071;-71
2022/04/02 02:07:03;;;;;;;7.55;1.45;;;;;;;;;;5044593;28;20091;-71
2022/04/02 02:09:29;;;;;;;6.63;1.45;;;;;;;;;;5031158;28;20520;-71
2022/04/02 02:11:56;;;;;;;10.20;1.88;;;;;;;;;;5024346;28;20033;-71
2022/04/02 02:14:22;;;;;;;9.02;1.85;;;;;;;;;;5024813;28;20021;-71
2022/04/02 02:16:48;;;;;;;7.97;2.35;;;;;;;;;;5041362;28;20033;-70
2022/04/02 02:19:14;;;;;;;8.98;1.98;;;;;;;;;;5043053;28;20409;-71
2022/04/02 02:21:40;;;;;;;8.23;2.22;;;;;;;;;;5026446;28;20027;-70
2022/04/02 02:24:07;;;;;;;7.22;1.85;;;;;;;;;;5044357;28;20035;-71
2022/04/02 02:26:34;;;;;;;6.65;1.67;;;;;;;;;;5044482;28;20032;-70
2022/04/02 02:29:00;;;;;;;6.90;1.60;;;;;;;;;;5044405;28;20021;-71
2022/04/02 02:31:26;;;;;;;9.82;2.08;;;;;;;;;;5042561;28;20214;-71
2022/04/02 02:36:37;;;;;;;13.80;2.90;;;;;;;;;;5044223;28;20040;-71
2022/04/02 02:39:04;;;;;;;8.32;2.05;;;;;;;;;;5042997;28;20037;-71
2022/04/02 02:41:30;;;;;;;7.25;1.70;;;;;;;;;;5042375;28;20087;-71
2022/04/02 02:43:56;;;;;;;7.18;1.65;;;;;;;;;;5046944;28;20017;-71
2022/04/02 02:46:23;;;;;;;7.00;1.90;;;;;;;;;;5046659;28;20093;-70
2022/04/02 02:48:49;;;;;;;13.57;1.90;;;;;;;;;;5046779;28;20469;-71
2022/04/02 02:51:15;;;;;;;9.55;2.20;;;;;;;;;;5046748;28;20098;-70
2022/04/02 02:53:44;;;;;;;7.18;1.88;;;;;;;;;;5045228;28;20029;-71
2022/04/02 02:56:10;;;;;;;11.25;1.92;;;;;;;;;;5046159;28;20389;-70
2022/04/02 02:58:36;;;;;;;7.32;2.20;;;;;;;;;;5046585;28;20104;-71
2022/04/02 03:01:04;;;;;;;5.32;1.60;;;;;;;;;;5046650;28;20021;-70
2022/04/02 03:03:31;;;;;;;6.13;1.55;;;;;;;;;;5050411;28;20032;-70
2022/04/02 03:05:57;;;;;;;5.82;1.83;;;;;;;;;;5049059;28;20485;-70
2022/04/02 03:08:23;;;;;;;6.95;1.48;;;;;;;;;;5050120;28;20033;-71
2022/04/02 03:10:50;;;;;;;8.70;1.50;;;;;;;;;;5049569;28;20032;-70
2022/04/02 03:13:16;;;;;;;7.05;1.75;;;;;;;;;;5050076;28;20179;-72
2022/04/02 03:15:42;;;;;;;4.95;1.50;;;;;;;;;;5050511;28;20021;-71
2022/04/02 03:18:09;;;;;;;7.72;1.55;;;;;;;;;;5028740;28;20434;-73
2022/04/02 03:20:36;;;;;;;8.38;2.25;;;;;;;;;;5025428;28;20196;-73
2022/04/02 03:23:02;;;;;;;6.05;1.92;;;;;;;;;;5025617;28;20022;-72
2022/04/02 03:25:29;;;;;;;8.10;1.25;;;;;;;;;;5025528;28;20119;-72
2022/04/02 03:27:55;;;;;;;7.15;1.60;;;;;;;;;;5027327;28;20032;-72
2022/04/02 03:30:23;;;;;;;7.18;1.73;;;;;;;;;;5044860;28;20021;-72
2022/04/02 03:32:49;;;;;;;6.82;1.90;;;;;;;;;;5026900;28;20037;-72
2022/04/02 03:35:16;;;;;;;4.43;1.17;;;;;;;;;;5045297;28;20029;-72
2022/04/02 03:37:43;;;;;;;7.22;1.73;;;;;;;;;;5045510;28;20028;-72
2022/04/02 03:40:10;;;;;;;7.60;1.85;;;;;;;;;;5044786;28;20737;-72
2022/04/02 03:42:37;;;;;;;15.05;1.80;;;;;;;;;;5043567;28;20079;-72
2022/04/02 03:45:04;;;;;;;4.68;1.30;;;;;;;;;;5044949;28;20091;-72
2022/04/02 03:47:31;;;;;;;5.82;1.25;;;;;;;;;;5028262;28;20033;-72
2022/04/02 03:49:57;;;;;;;4.50;1.48;;;;;;;;;;5023035;28;20482;-72
2022/04/02 03:52:23;;;;;;;7.82;1.67;;;;;;;;;;5036406;28;20048;-73
2022/04/02 03:54:49;;;;;;;5.10;1.52;;;;;;;;;;5041439;28;20409;-72
2022/04/02 03:57:16;;;;;;;5.63;1.85;;;;;;;;;;5042855;28;20021;-72
2022/04/02 03:59:43;;;;;;;7.05;1.73;;;;;;;;;;5042199;28;20499;-72
2022/04/02 04:02:09;;;;;;;10.07;1.50;;;;;;;;;;5042712;28;20041;-72
2022/04/02 04:04:36;;;;;;;8.80;1.85;;;;;;;;;;5040657;28;20025;-73
2022/04/02 04:07:02;;;;;;;5.20;1.40;;;;;;;;;;5042434;28;20049;-72
2022/04/02 04:09:29;;;;;;;5.90;1.30;;;;;;;;;;5042140;28;20021;-72
2022/04/02 04:11:55;;;;;;;8.15;2.45;;;;;;;;;;5041993;28;20021;-72
2022/04/02 04:14:22;;;;;;;7.53;1.80;;;;;;;;;;5040363;28;20021;-72
2022/04/02 04:16:48;;;;;;;8.18;2.22;;;;;;;;;;5041863;28;20124;-72
2022/04/02 04:19:16;;;;;;;9.32;2.00;;;;;;;;;;5042205;28;20036;-72
2022/04/02 04:21:43;;;;;;;8.18;1.98;;;;;;;;;;5040336;28;20602;-72
2022/04/02 04:24:09;;;;;;;10.75;2.08;;;;;;;;;;5040622;28;20032;-72
2022/04/02 04:26:35;;;;;;;10.45;3.25;;;;;;;;;;5041459;28;20039;-72
2022/04/02 04:29:02;;;;;;;21.02;3.10;;;;;;;;;;5024046;28;20043;-72
2022/04/02 04:31:29;;;;;;;14.90;3.03;;;;;;;;;;5041763;28;20033;-72
2022/04/02 04:33:55;;;;;;;11.23;2.45;;;;;;;;;;5029573;28;20037;-73
2022/04/02 04:36:22;;;;;;;14.05;4.07;;;;;;;;;;5021680;28;20108;-72
2022/04/02 04:38:48;;;;;;;9.80;2.35;;;;;;;;;;5020838;28;20033;-72
2022/04/02 04:41:17;;;;;;;12.75;2.95;;;;;;;;;;5021617;28;20333;-72
2022/04/02 04:43:44;;;;;;;8.65;2.83;;;;;;;;;;5021500;28;20116;-72
2022/04/02 04:46:11;;;;;;;13.82;2.83;;;;;;;;;;5021745;28;20090;-75
2022/04/02 04:48:37;;;;;;;11.88;2.53;;;;;;;;;;5021386;28;20025;-73
2022/04/02 04:51:03;;;;;;;8.65;2.60;;;;;;;;;;5019773;28;20101;-72
2022/04/02 04:53:29;;;;;;;10.07;2.47;;;;;;;;;;5021349;28;20029;-72
2022/04/02 04:55:55;;;;;;;9.50;2.10;;;;;;;;;;5021010;28;20587;-72
2022/04/02 04:58:22;;;;;;;8.25;2.00;;;;;;;;;;5028686;28;20036;-72
2022/04/02 05:00:48;;;;;;;7.93;2.13;;;;;;;;;;5039443;28;20036;-72
2022/04/02 05:03:14;;;;;;;11.57;3.05;;;;;;;;;;5041259;28;20566;-72
2022/04/02 05:05:40;;;;;;;7.53;1.92;;;;;;;;;;5040838;28;20627;-72
2022/04/02 05:08:07;;;;;;;8.10;1.88;;;;;;;;;;5040932;28;20068;-72
2022/04/02 05:10:33;;;;;;;6.15;1.75;;;;;;;;;;5040906;28;20033;-72
2022/04/02 05:13:00;;;;;;;8.02;1.58;;;;;;;;;;5039414;28;20405;-72
2022/04/02 05:15:26;;;;;;;4.90;2.20;;;;;;;;;;5040846;28;20025;-72
2022/04/02 05:17:52;;;;;;;6.28;1.83;;;;;;;;;;5040849;28;20025;-72
2022/04/02 05:20:18;;;;;;;8.07;1.83;;;;;;;;;;5040064;28;20021;-73
2022/04/02 05:22:45;;;;;;;9.57;3.00;;;;;;;;;;5020781;28;20065;-72
2022/04/02 05:25:12;;;;;;;10.27;2.15;;;;;;;;;;5020419;28;20104;-72
2022/04/02 05:27:38;;;;;;;14.93;2.40;;;;;;;;;;5020723;28;20030;-72
2022/04/02 05:30:05;;;;;;;22.10;2.80;;;;;;;;;;5020711;28;20029;-72
2022/04/02 05:32:31;;;;;;;9.88;2.03;;;;;;;;;;5021013;28;20025;-71
2022/04/02 05:34:58;;;;;;;7.57;2.00;;;;;;;;;;5018650;28;20029;-72
2022/04/02 05:37:24;;;;;;;6.68;1.90;;;;;;;;;;5020348;28;20033;-71
2022/04/02 05:39:50;;;;;;;11.15;2.75;;;;;;;;;;5020931;28;20021;-72
2022/04/02 05:42:17;;;;;;;6.90;1.90;;;;;;;;;;5020624;28;20045;-71
2022/04/02 05:44:43;;;;;;;7.93;2.20;;;;;;;;;;5020870;28;20029;-72
2022/04/02 05:47:09;;;;;;;8.23;2.35;;;;;;;;;;5019086;28;20034;-73
2022/04/02 05:49:36;;;;;;;10.68;2.13;;;;;;;;;;5026582;28;20568;-71
2022/04/02 05:52:03;;;;;;;7.90;1.90;;;;;;;;;;5040233;28;20025;-72
2022/04/02 05:54:29;;;;;;;6.45;1.80;;;;;;;;;;5040144;28;20099;-72
2022/04/02 05:56:56;;;;;;;10.57;2.00;;;;;;;;;;5038582;28;20462;-72
2022/04/02 05:59:22;;;;;;;11.40;2.10;;;;;;;;;;5039889;28;20031;-72
2022/04/02 06:01:48;;;;;;;8.13;1.70;;;;;;;;;;5040278;28;20037;-72
2022/04/02 06:04:15;;;;;;;6.97;1.88;;;;;;;;;;5040043;28;20469;-72
2022/04/02 06:06:41;;;;;;;9.60;2.15;;;;;;;;;;5039758;28;20055;-73
2022/04/02 06:09:07;;;;;;;8.35;1.83;;;;;;;;;;5040305;28;20040;-71
2022/04/02 06:11:33;;;;;;;14.93;2.42;;;;;;;;;;5023216;28;20741;-72
2022/04/02 06:14:00;;;;;;;7.18;1.63;;;;;;;;;;5019971;28;20694;-72
2022/04/02 06:16:26;;;;;;;9.68;2.72;;;;;;;;;;5030817;28;20029;-74
2022/04/02 06:18:53;;;;;;;6.90;1.85;;;;;;;;;;5038610;28;20227;-72
2022/04/02 06:21:20;;;;;;;8.15;2.28;;;;;;;;;;5038842;28;20036;-71
2022/04/02 06:23:46;;;;;;;5.20;1.60;;;;;;;;;;5039241;28;20110;-71
2022/04/02 06:26:12;;;;;;;6.28;2.10;;;;;;;;;;5040031;28;20632;-72
2022/04/02 06:28:40;;;;;;;6.60;2.00;;;;;;;;;;5039826;28;20036;-71
2022/04/02 06:31:06;;;;;;;10.45;2.35;;;;;;;;;;5040127;28;20527;-71
2022/04/02 06:33:33;;;;;;;9.88;1.98;;;;;;;;;;5039775;28;20029;-71
2022/04/02 06:36:00;;;;;;;8.70;2.35;;;;;;;;;;5037039;28;20124;-71
2022/04/02 06:38:27;;;;;;;8.20;2.53;;;;;;;;;;5044351;28;20056;-72
2022/04/02 06:40:53;;;;;;;9.45;2.20;;;;;;;;;;5039625;28;20021;-72
2022/04/02 06:43:20;;;;;;;7.45;1.90;;;;;;;;;;5038424;28;20607;-72
2022/04/02 06:45:46;;;;;;;13.52;2.10;;;;;;;;;;5038761;28;20029;-71
2022/04/02 06:48:13;;;;;;;5.97;1.92;;;;;;;;;;5037968;28;20635;-72
2022/04/02 06:50:40;;;;;;;8.85;1.92;;;;;;;;;;5039749;28;20086;-71
2022/04/02 06:53:06;;;;;;;10.02;2.30;;;;;;;;;;5038248;28;20025;-72
2022/04/02 06:55:33;;;;;;;9.57;2.03;;;;;;;;;;5039411;28;20107;-71
2022/04/02 06:57:59;;;;;;;7.97;2.03;;;;;;;;;;5039323;28;20029;-71
2022/04/02 07:00:26;;;;;;;11.55;2.72;;;;;;;;;;5039588;28;20070;-71
2022/04/02 07:02:53;;;;;;;11.38;2.65;;;;;;;;;;5037802;28;20071;-71
2022/04/02 07:05:19;;;;;;;6.97;2.78;;;;;;;;;;5039315;28;20017;-72
2022/04/02 07:07:46;;;;;;;11.25;2.75;;;;;;;;;;5039256;28;20583;-71
2022/04/02 07:10:13;;;;;;;6.40;2.00;;;;;;;;;;5038993;28;20112;-71
2022/04/02 07:12:40;;;;;;;10.15;2.20;;;;;;;;;;5021870;28;20028;-71
2022/04/02 07:15:07;;;;;;;12.85;2.47;;;;;;;;;;5039940;28;20724;-71
2022/04/02 07:17:34;;;;;;;6.25;2.35;;;;;;;;;;5037678;28;20036;-71
2022/04/02 07:20:01;;;;;;;7.03;1.98;;;;;;;;;;5039475;28;20029;-71
2022/04/02 07:22:28;;;;;;;7.50;2.20;;;;;;;;;;5037081;28;20588;-71
2022/04/02 07:24:55;;;;;;;8.65;2.60;;;;;;;;;;5039216;28;20031;-71
2022/04/02 07:27:22;;;;;;;12.80;2.67;;;;;;;;;;5038705;28;20103;-71
2022/04/02 07:29:49;;;;;;;7.97;1.92;;;;;;;;;;5037412;28;20025;-71
2022/04/02 07:32:16;;;;;;;7.35;1.90;;;;;;;;;;5039032;28;20025;-71
2022/04/02 07:34:42;;;;;;;7.40;3.03;;;;;;;;;;5021834;28;20021;-71
2022/04/02 07:37:17;;;;;;;11.60;1.75;;;;;;;;;;5039228;28;20037;-71
2022/04/02 07:39:50;;;;;;;6.40;1.73;;;;;;;;;;5039145;28;20028;-70
2022/04/02 07:42:26;;;;;;;5.35;1.60;;;;;;;;;;5037781;28;20033;-71
2022/04/02 07:44:55;;;;;;;9.65;3.03;;;;;;;;;;5039569;28;20604;-71
2022/04/02 07:47:23;;;;;;;5.55;1.88;;;;;;;;;;5021890;28;20032;-71
2022/04/02 07:49:52;;;;;;;6.13;1.83;;;;;;;;;;5042415;28;20043;-71
2022/04/02 07:52:19;;;;;;;7.60;1.90;;;;;;;;;;5041155;28;20028;-71
2022/04/02 07:54:46;;;;;;;5.95;2.42;;;;;;;;;;5041832;28;20032;-71
2022/04/02 07:57:14;;;;;;;5.82;2.40;;;;;;;;;;5042480;28;20025;-71
2022/04/02 07:59:42;;;;;;;11.40;2.65;;;;;;;;;;5042008;28;20025;-71
2022/04/02 08:02:36;;;;;;;11.45;2.42;;;;;;;;;;5042272;28;20037;-70
2022/04/02 08:05:02;;;;;;;8.50;1.90;;;;;;;;;;5042130;28;20064;-71
2022/04/02 08:07:32;;;;;;;10.75;2.70;;;;;;;;;;5040822;28;20098;-71
2022/04/02 08:09:59;;;;;;;13.85;2.20;;;;;;;;;;5041686;28;20070;-71
2022/04/02 08:12:25;;;;;;;7.68;1.75;;;;;;;;;;5041822;28;20087;-70
2022/04/02 08:14:52;;;;;;;7.60;1.85;;;;;;;;;;5042288;28;20021;-71
2022/04/02 08:17:20;;;;;;;9.90;2.33;;;;;;;;;;5042034;28;20627;-71
2022/04/02 08:19:49;;;;;;;9.05;2.33;;;;;;;;;;5041882;28;20032;-70
2022/04/02 08:22:18;;;;;;;4.85;2.28;;;;;;;;;;5020347;28;20512;-71
2022/04/02 08:24:45;;;;;;;5.10;1.40;;;;;;;;;;5042117;28;20068;-71
2022/04/02 08:27:21;;;;;;;5.07;1.58;;;;;;;;;;5041743;28;20080;-72
2022/04/02 08:29:50;;;;;;;3.08;1.13;;;;;;;;;;5042067;28;20124;-71
2022/04/02 08:32:35;;;;;;;3.47;1.20;;;;;;;;;;5022565;28;20040;-71
2022/04/02 08:35:01;;;;;;;3.45;1.23;;;;;;;;;;5041120;28;20037;-73
2022/04/02 08:37:30;;;;;;;2.78;1.35;;;;;;;;;;5021793;28;20029;-72
2022/04/02 08:40:02;;;;;;;8.57;1.23;;;;;;;;;;5021523;28;20103;-71
2022/04/02 08:42:47;;;;;;;3.75;1.25;;;;;;;;;;5020477;28;20463;-71
2022/04/02 08:45:14;;;;;;;4.78;1.45;;;;;;;;;;5033621;28;20033;-71
2022/04/02 08:47:50;;;;;;;4.75;1.27;;;;;;;;;;5041292;28;20025;-72
2022/04/02 08:50:16;;;;;;;6.53;1.42;;;;;;;;;;5041585;28;20039;-73
2022/04/02 08:52:53;;;;;;;3.30;1.20;;;;;;;;;;5041509;28;20025;-72
2022/04/02 08:55:26;;;;;;;7.43;1.45;;;;;;;;;;5041104;28;20029;-72
2022/04/02 08:57:55;;;;;;;8.93;2.10;;;;;;;;;;5040156;28;20132;-72
2022/04/02 09:00:25;;;;;;;10.60;1.60;;;;;;;;;;5041195;28;20036;-72
2022/04/02 09:02:54;;;;;;;6.30;1.50;;;;;;;;;;5041901;28;20037;-71
2022/04/02 09:05:39;;;;;;;7.32;1.50;;;;;;;;;;5040031;28;20032;-71
2022/04/02 09:08:05;;;;;;;7.20;1.50;;;;;;;;;;5041316;28;20047;-72
2022/04/02 09:10:42;;;;;;;4.95;1.80;;;;;;;;;;5040837;28;20033;-71
2022/04/02 09:13:41;;;;;;;5.13;1.30;;;;;;;;;;5008979;28;20025;-71
2022/04/02 09:16:09;;;;;;;3.17;1.17;;;;;;;;;;4986161;28;20045;-71
2022/04/02 09:18:37;;;;;;;7.20;1.55;;;;;;;;;;5020957;28;20075;-71
2022/04/02 09:21:33;;;;;;;5.63;1.13;;;;;;;;;;5018827;28;20057;-72
2022/04/02 09:24:03;;;;;;;4.18;1.30;;;;;;;;;;5007789;28;20049;-71
2022/04/02 09:26:43;;;;;;;3.85;1.30;;;;;;;;;;5019514;28;20032;-71
2022/04/02 09:29:16;;;;;;;4.68;1.10;;;;;;;;;;5021207;28;20068;-71
2022/04/02 09:31:42;;;;;;;4.95;1.48;;;;;;;;;;5020854;28;20688;-71
2022/04/02 09:34:17;;;;;;;4.65;1.63;;;;;;;;;;5019008;28;20029;-71
2022/04/02 09:37:02;;;;;;;4.28;1.30;;;;;;;;;;5020777;28;20087;-71
2022/04/02 09:39:31;;;;;;;6.50;1.23;;;;;;;;;;5020554;28;20657;-71
2022/04/02 09:42:23;;;;;;;8.25;1.42;;;;;;;;;;5040233;28;20040;-70
2022/04/02 09:44:53;;;;;;;6.63;1.15;;;;;;;;;;5017230;28;20048;-70
2022/04/02 09:47:23;;;;;;;7.95;1.40;;;;;;;;;;5036678;28;20481;-70
2022/04/02 09:49:49;;;;;;;7.82;1.42;;;;;;;;;;5040220;28;20048;-70
2022/04/02 09:52:21;;;;;;;3.20;1.27;;;;;;;;;;5022282;28;20613;-72
2022/04/02 09:55:20;;;;;;;3.05;1.08;;;;;;;;;;5040118;28;20086;-70
2022/04/02 09:57:46;;;;;;;5.53;1.10;;;;;;;;;;5006103;28;20067;-71
2022/04/02 10:00:16;;;;;;;4.05;1.20;;;;;;;;;;5038642;28;20493;-70
2022/04/02 10:02:45;;;;;;;3.42;1.05;;;;;;;;;;5039737;28;20032;-70
2022/04/02 10:05:14;;;;;;;2.80;1.20;;;;;;;;;;5040233;28;20070;-70
2022/04/02 10:08:04;;;;;;;5.50;1.10;;;;;;;;;;5039837;28;20094;-71
2022/04/02 10:10:30;;;;;;;3.47;1.20;;;;;;;;;;5038043;28;20029;-70
2022/04/02 10:12:57;;;;;;;6.70;1.75;;;;;;;;;;5039681;28;20201;-70
2022/04/02 10:15:24;;;;;;;6.15;1.95;;;;;;;;;;5039995;28;20694;-70
2022/04/02 10:17:54;;;;;;;2.35;1.00;;;;;;;;;;5038931;28;20032;-71
2022/04/02 10:20:23;;;;;;;5.43;1.05;;;;;;;;;;5040293;28;20039;-70
2022/04/02 10:22:53;;;;;;;3.85;0.90;;;;;;;;;;5037961;28;20029;-70
2022/04/02 10:25:19;;;;;;;6.13;1.40;;;;;;;;;;5040005;28;20032;-70
2022/04/02 10:27:45;;;;;;;5.93;1.52;;;;;;;;;;5040022;28;20043;-70
2022/04/02 10:30:16;;;;;;;2.90;1.13;;;;;;;;;;5038176;28;20070;-70
2022/04/02 10:33:26;;;;;;;6.38;1.58;;;;;;;;;;5040331;28;20112;-70
2022/04/02 10:35:53;;;;;;;3.33;0.98;;;;;;;;;;4976972;28;20073;-71
2022/04/02 10:38:22;;;;;;;6.50;1.88;;;;;;;;;;5031075;28;20047;-70
2022/04/02 10:40:56;;;;;;;6.15;1.33;;;;;;;;;;5037786;28;20040;-72
2022/04/02 10:43:29;;;;;;;5.70;1.30;;;;;;;;;;5039632;28;20481;-70
2022/04/02 10:45:57;;;;;;;3.75;1.20;;;;;;;;;;5039585;28;20035;-70
2022/04/02 10:48:42;;;;;;;7.45;1.80;;;;;;;;;;5039719;28;20064;-70
2022/04/02 10:51:09;;;;;;;4.30;1.40;;;;;;;;;;5039587;28;20024;-70
2022/04/02 10:53:38;;;;;;;4.35;1.25;;;;;;;;;;5037752;28;20079;-70
2022/04/02 10:56:07;;;;;;;2.97;1.10;;;;;;;;;;5039773;28;20036;-71
2022/04/02 10:58:37;;;;;;;3.53;1.00;;;;;;;;;;5039011;28;20033;-70
2022/04/02 11:01:05;;;;;;;6.05;1.45;;;;;;;;;;5039149;28;20029;-70
2022/04/02 11:03:40;;;;;;;4.88;1.30;;;;;;;;;;5045232;28;20131;-70
2022/04/02 11:06:07;;;;;;;3.88;1.10;;;;;;;;;;5053489;28;20060;-70
2022/04/02 11:08:34;;;;;;;5.72;1.20;;;;;;;;;;5038825;28;20025;-71
2022/04/02 11:11:20;;;;;;;6.90;1.40;;;;;;;;;;5039277;28;20144;-73
2022/04/02 11:13:46;;;;;;;4.03;1.27;;;;;;;;;;5019859;28;20048;-74
2022/04/02 11:16:16;;;;;;;6.15;1.40;;;;;;;;;;5024487;28;20397;-74
2022/04/02 11:19:53;;;;;;;4.65;1.33;;;;;;;;;;5039663;28;20028;-72
2022/04/02 11:21:34;;;;;;;6.10;1.33;;;;;;;;;;5036934;28;20142;-71
2022/04/02 11:24:02;;;;;;;7.40;1.35;;;;;;;;;;5041961;28;20455;-76
2022/04/02 11:26:29;;;;;;;9.38;1.65;;;;;;;;;;5041843;28;20078;-73
2022/04/02 11:28:56;;;;;;;9.05;1.60;;;;;;;;;;5042984;28;20049;-73
2022/04/02 11:31:29;;;;;;;6.72;1.40;;;;;;;;;;5042429;28;20024;-71
2022/04/02 11:33:58;;;;;;;7.55;1.40;;;;;;;;;;5044771;28;20485;-72
2022/04/02 11:36:36;;;;;;;4.60;1.40;;;;;;;;;;5041130;28;20029;-74
2022/04/02 11:39:03;;;;;;;5.40;1.10;;;;;;;;;;5043193;28;20051;-75
2022/04/02 11:41:38;;;;;;;5.68;1.52;;;;;;;;;;5025611;28;20699;-71
2022/04/02 11:44:08;;;;;;;6.32;2.05;;;;;;;;;;5044888;28;20049;-71
2022/04/02 11:46:54;;;;;;;4.53;1.30;;;;;;;;;;5038972;28;20030;-72
2022/04/02 11:49:36;;;;;;;7.97;1.45;;;;;;;;;;5052335;28;20036;-70
2022/04/02 11:52:07;;;;;;;5.20;1.50;;;;;;;;;;5045435;28;20614;-71
2022/04/02 11:54:39;;;;;;;4.70;1.20;;;;;;;;;;5041620;28;20025;-70
2022/04/02 11:57:10;;;;;;;13.45;2.38;;;;;;;;;;5046534;28;20603;-75
2022/04/02 11:59:36;;;;;;;9.85;2.50;;;;;;;;;;5040167;28;20623;-73
2022/04/02 12:02:03;;;;;;;15.38;3.15;;;;;;;;;;5055446;28;20048;-70
2022/04/02 12:04:29;;;;;;;11.38;2.35;;;;;;;;;;5050686;28;20063;-71
2022/04/02 12:07:03;;;;;;;13.38;2.25;;;;;;;;;;5042611;28;20572;-71
2022/04/02 12:09:30;;;;;;;10.23;1.77;;;;;;;;;;5043742;28;20036;-71
2022/04/02 12:11:57;;;;;;;11.77;1.80;;;;;;;;;;5046854;28;20037;-70
2022/04/02 12:14:31;;;;;;;8.52;1.35;;;;;;;;;;5049181;28;20036;-71
2022/04/02 12:17:03;;;;;;;5.07;1.20;;;;;;;;;;5022039;28;20025;-74
2022/04/02 12:19:37;;;;;;;3.88;1.10;;;;;;;;;;5024905;28;20032;-70
2022/04/02 12:22:04;;;;;;;5.97;1.02;;;;;;;;;;5037647;28;20060;-76
2022/04/02 12:24:40;;;;;;;2.97;0.98;;;;;;;;;;5041791;28;20362;-70
2022/04/02 12:27:09;;;;;;;3.53;1.02;;;;;;;;;;5042008;28;20389;-70
2022/04/02 12:29:36;;;;;;;3.90;1.30;;;;;;;;;;5041731;28;20028;-71
2022/04/02 12:32:02;;;;;;;2.45;0.70;;;;;;;;;;5023090;28;20032;-71
2022/04/02 12:34:28;;;;;;;3.72;0.90;;;;;;;;;;5040154;28;20032;-72
2022/04/02 12:37:02;;;;;;;4.35;0.80;;;;;;;;;;5039578;28;20029;-74
2022/04/02 12:39:28;;;;;;;1.35;0.50;;;;;;;;;;5057358;28;20106;-72
2022/04/02 12:41:54;;;;;;;1.55;0.70;;;;;;;;;;5045920;28;20110;-73
2022/04/02 12:44:22;;;;;;;1.33;0.60;;;;;;;;;;5045825;28;20063;-70
2022/04/02 12:46:49;;;;;;;4.03;1.10;;;;;;;;;;5035962;28;20738;-73
2022/04/02 12:49:41;;;;;;;1.00;0.50;;;;;;;;;;5041097;28;20462;-70
2022/04/02 12:52:10;;;;;;;3.30;0.65;;;;;;;;;;5043779;28;20398;-70
2022/04/02 12:54:36;;;;;;;1.95;0.75;;;;;;;;;;5040233;28;20040;-71
2022/04/02 12:57:15;;;;;;;2.33;0.55;;;;;;;;;;5053708;28;20028;-70
2022/04/02 12:59:50;;;;;;;2.35;0.50;;;;;;;;;;5039634;28;20021;-70
2022/04/02 13:02:20;;;;;;;4.50;0.80;;;;;;;;;;5041314;28;20071;-71
2022/04/02 13:04:53;;;;;;;1.65;0.60;;;;;;;;;;5041835;28;20029;-71
2022/04/02 13:07:21;;;;;;;1.52;0.68;;;;;;;;;;5039182;28;20060;-71
2022/04/02 13:09:48;;;;;;;2.58;0.80;;;;;;;;;;5053514;28;20016;-70
2022/04/02 13:12:21;;;;;;;2.78;0.90;;;;;;;;;;5042052;28;20691;-70
2022/04/02 13:14:50;;;;;;;3.67;0.80;;;;;;;;;;5024906;28;20460;-70
2022/04/02 13:17:18;;;;;;;2.55;0.90;;;;;;;;;;5021610;28;20035;-71
2022/04/02 13:22:29;;;;;;;2.33;0.70;;;;;;;;;;5050857;28;20040;-70
2022/04/02 13:24:59;;;;;;;3.40;0.60;;;;;;;;;;5060167;28;20043;-70
2022/04/02 13:27:25;;;;;;;1.90;0.80;;;;;;;;;;5036165;28;20035;-70
2022/04/02 13:29:54;;;;;;;2.17;0.65;;;;;;;;;;5027706;28;20501;-70
2022/04/02 13:32:20;;;;;;;1.17;0.50;;;;;;;;;;5040643;28;20115;-70
2022/04/02 13:35:05;;;;;;;4.70;0.90;;;;;;;;;;5034974;28;20028;-70
2022/04/02 13:37:50;;;;;;;2.03;0.47;;;;;;;;;;5033813;28;20029;-70
2022/04/02 13:40:17;;;;;;;5.32;0.68;;;;;;;;;;5050891;28;20025;-71
2022/04/02 13:42:51;;;;;;;2.47;0.80;;;;;;;;;;5040253;28;20047;-71
2022/04/02 13:45:20;;;;;;;5.38;1.17;;;;;;;;;;5040823;28;20112;-70
2022/04/02 13:47:55;;;;;;;9.10;1.25;;;;;;;;;;5046955;28;20099;-74
2022/04/02 13:50:21;;;;;;;3.47;0.95;;;;;;;;;;5046668;28;20049;-70
2022/04/02 13:53:06;;;;;;;5.82;1.30;;;;;;;;;;5038870;28;20033;-70
2022/04/02 13:55:33;;;;;;;5.63;1.13;;;;;;;;;;5039793;28;20634;-71
2022/04/02 13:58:03;;;;;;;6.93;1.42;;;;;;;;;;5040847;28;20509;-71
2022/04/02 14:00:34;;;;;;;9.50;1.33;;;;;;;;;;5059633;28;20024;-70
2022/04/02 14:03:04;;;;;;;7.28;1.23;;;;;;;;;;5058003;28;20038;-70
2022/04/02 14:05:32;;;;;;;7.05;2.72;;;;;;;;;;5033953;28;20040;-75
2022/04/02 14:08:10;;;;;;;5.72;1.00;;;;;;;;;;5057664;28;20691;-71
2022/04/02 14:10:48;;;;;;;9.70;1.73;;;;;;;;;;5057509;28;20029;-71
2022/04/02 14:13:22;;;;;;;8.90;1.48;;;;;;;;;;5057852;28;20031;-71
2022/04/02 14:15:55;;;;;;;8.90;1.77;;;;;;;;;;5045475;28;20037;-71
2022/04/02 14:18:25;;;;;;;7.03;1.05;;;;;;;;;;5039127;28;20024;-71
2022/04/02 14:20:53;;;;;;;9.90;1.48;;;;;;;;;;5016953;28;20025;-70
2022/04/02 14:23:22;;;;;;;5.60;1.30;;;;;;;;;;5040225;28;20043;-70
2022/04/02 14:25:54;;;;;;;9.90;1.45;;;;;;;;;;5038694;28;20021;-71
2022/04/02 14:28:20;;;;;;;11.00;1.90;;;;;;;;;;5039467;28;20033;-70
2022/04/02 14:31:05;;;;;;;7.35;1.65;;;;;;;;;;5040484;28;20028;-70
2022/04/02 14:33:34;;;;;;;9.45;1.00;;;;;;;;;;5032391;28;20025;-70
2022/04/02 14:36:19;;;;;;;3.83;1.10;;;;;;;;;;5056199;28;20039;-70
2022/04/02 14:39:04;;;;;;;2.53;0.65;;;;;;;;;;5054191;28;20162;-70
2022/04/02 14:41:37;;;;;;;2.45;0.47;;;;;;;;;;5051530;28;20596;-71
2022/04/02 14:44:03;;;;;;;;;;;;;;;;;;5031428;28;20040;-70
2022/04/02 14:46:38;;;;;;;4.22;0.80;;;;;;;;;;5055844;28;19999;-70
2022/04/02 14:49:23;;;;;;;1.55;0.57;;;;;;;;;;5056962;28;20097;-70
2022/04/02 14:52:08;;;;;;;6.80;1.38;;;;;;;;;;5047192;28;20052;-71
2022/04/02 14:54:43;;;;;;;6.78;1.20;;;;;;;;;;5043116;28;20041;-70
2022/04/02 14:57:09;;;;;;;2.53;0.82;;;;;;;;;;5039031;28;20063;-69
2022/04/02 14:59:38;;;;;;;11.95;1.35;;;;;;;;;;5042791;28;20071;-69